Aeroporto :
LOGIN :

Iscrizione | Disclaimer

   EN    FR    IT 

 










Sommario :    VFR   VFR Marginale   IFR   IFR Intensivo   IFR Molto Intensivo
Visibilità : 
Base nubi : 
>= 8 km
>= 3000ft
5 / 8 km
1000 / 3000 ft
1500m / 5 km
500 / 1000 ft
800 / 1500m
200 / 500 ft
< 800m
< 200 ft
Simboli :   Temporali  Nebbia  Neve Forte  Precipitazioni Forti  Vento > 20 kt
SIGMETs :   Varie  Temporali  Ghiacco  Turbolenza  Onda orograficha  Ceneri Vulcaniche






- Altitudine del aeroporto : 26 ft
- Codice IATA : BIA


LFKB - Bastia

ULTIMO METAR :
  • 121930Z AUTO 19004KT CAVOK 21/18 Q1018 NOSIG

METARs OBSOLETI :
  • 121900Z AUTO 13004KT CAVOK 22/18 Q1018 NOSIG
  • 121830Z AUTO 15003KT 080V190 CAVOK 24/18 Q1018 NOSIG
  • 121800Z AUTO 12004KT CAVOK 25/18 Q1018 TEMPO 04010KT
  • 121730Z AUTO 02003KT 330V090 CAVOK 26/18 Q1018 NOSIG
  • 121700Z AUTO 03005KT 340V070 CAVOK 26/18 Q1018 NOSIG

TAF TAF LFKB
Valido dal 12 a 15 ore il 13 a 15 ore UTC


121400Z 1215/1315 04010KT CAVOK TX29/1215Z TN18/1303Z
BECMG 1219/1221 VRB03KT
BECMG 1310/1312 05010KT
ATIS : +33 4 95 59 19 40



MetMap, La meteo Aeronautica in un colpo d'occhio ! - Copyright ORBIFLY Dicembre 2007 - Disclaimer

ORBIFLY MET'MAP TEAM :

Programmazione e sviluppo : Alexandra Zaïnal
Concezione : Baudouin d'Aumeries
Aiuto per la programmazione : Marc-Olivier Méhu
Supporto tecnico e logistico : Manuel Goepfert
Aiuto per la traduzione : Arnaldo La Scala

Contatto : metmap@orbifly.com




FONTI E CREDITI :

   NOAA